sensor_id;sensor_type;location;lat;lon;timestamp;pressure;altitude;pressure_sealevel;temperature
70831;BMP180;58451;51.550;7.208;2023-07-08T00:01:12;101062.40;;;19.10
70831;BMP180;58451;51.550;7.208;2023-07-08T00:02:44;101061.40;;;19.10
70831;BMP180;58451;51.550;7.208;2023-07-08T00:04:16;101061.00;;;19.06
70831;BMP180;58451;51.550;7.208;2023-07-08T00:05:50;101059.00;;;19.10
70831;BMP180;58451;51.550;7.208;2023-07-08T00:07:23;101056.00;;;19.10
70831;BMP180;58451;51.550;7.208;2023-07-08T00:08:54;101057.60;;;19.10
70831;BMP180;58451;51.550;7.208;2023-07-08T00:10:28;101055.40;;;19.10
70831;BMP180;58451;51.550;7.208;2023-07-08T00:11:59;101051.20;;;19.10
70831;BMP180;58451;51.550;7.208;2023-07-08T00:13:31;101055.40;;;19.10
70831;BMP180;58451;51.550;7.208;2023-07-08T00:15:02;101053.00;;;19.10
70831;BMP180;58451;51.550;7.208;2023-07-08T00:16:34;101048.80;;;19.10
70831;BMP180;58451;51.550;7.208;2023-07-08T00:18:13;101050.60;;;19.10
70831;BMP180;58451;51.550;7.208;2023-07-08T00:19:44;101048.00;;;19.10
70831;BMP180;58451;51.550;7.208;2023-07-08T00:21:17;101051.40;;;19.10
70831;BMP180;58451;51.550;7.208;2023-07-08T00:22:49;101043.80;;;19.14
70831;BMP180;58451;51.550;7.208;2023-07-08T00:24:23;101037.00;;;19.14
70831;BMP180;58451;51.550;7.208;2023-07-08T00:25:54;101040.20;;;19.18
70831;BMP180;58451;51.550;7.208;2023-07-08T00:27:25;101036.60;;;19.20
70831;BMP180;58451;51.550;7.208;2023-07-08T00:28:57;101036.60;;;19.20
70831;BMP180;58451;51.550;7.208;2023-07-08T00:30:30;101035.40;;;19.20
70831;BMP180;58451;51.550;7.208;2023-07-08T00:32:14;101034.00;;;19.20
70831;BMP180;58451;51.550;7.208;2023-07-08T00:33:45;101035.60;;;19.20
70831;BMP180;58451;51.550;7.208;2023-07-08T00:35:16;101035.80;;;19.20
70831;BMP180;58451;51.550;7.208;2023-07-08T00:36:47;101034.40;;;19.20
70831;BMP180;58451;51.550;7.208;2023-07-08T00:38:26;101030.60;;;19.20
70831;BMP180;58451;51.550;7.208;2023-07-08T00:39:59;101034.40;;;19.20
70831;BMP180;58451;51.550;7.208;2023-07-08T00:41:38;101033.40;;;19.20
70831;BMP180;58451;51.550;7.208;2023-07-08T00:43:11;101033.60;;;19.20
70831;BMP180;58451;51.550;7.208;2023-07-08T00:44:43;101032.20;;;19.20
70831;BMP180;58451;51.550;7.208;2023-07-08T00:48:34;101029.40;;;19.30
70831;BMP180;58451;51.550;7.208;2023-07-08T00:50:08;101028.40;;;19.30
70831;BMP180;58451;51.550;7.208;2023-07-08T00:51:42;101031.60;;;19.30
70831;BMP180;58451;51.550;7.208;2023-07-08T00:53:37;101030.80;;;19.30
70831;BMP180;58451;51.550;7.208;2023-07-08T00:55:09;101033.60;;;19.30
70831;BMP180;58451;51.550;7.208;2023-07-08T00:56:56;101030.00;;;19.30
70831;BMP180;58451;51.550;7.208;2023-07-08T00:58:50;101031.60;;;19.30
70831;BMP180;58451;51.550;7.208;2023-07-08T01:00:24;101029.80;;;19.30
70831;BMP180;58451;51.550;7.208;2023-07-08T01:01:57;101031.00;;;19.30
70831;BMP180;58451;51.550;7.208;2023-07-08T01:03:42;101030.60;;;19.30
70831;BMP180;58451;51.550;7.208;2023-07-08T01:05:24;101035.80;;;19.30
70831;BMP180;58451;51.550;7.208;2023-07-08T01:06:59;101034.60;;;19.30
70831;BMP180;58451;51.550;7.208;2023-07-08T01:08:34;101030.80;;;19.30
70831;BMP180;58451;51.550;7.208;2023-07-08T01:10:14;101028.20;;;19.30
70831;BMP180;58451;51.550;7.208;2023-07-08T01:11:47;101020.80;;;19.30
70831;BMP180;58451;51.550;7.208;2023-07-08T01:13:21;101022.00;;;19.30
70831;BMP180;58451;51.550;7.208;2023-07-08T01:14:54;101018.40;;;19.30
70831;BMP180;58451;51.550;7.208;2023-07-08T01:16:26;101017.80;;;19.30
70831;BMP180;58451;51.550;7.208;2023-07-08T01:17:57;101019.80;;;19.30
70831;BMP180;58451;51.550;7.208;2023-07-08T01:19:30;101018.80;;;19.30
70831;BMP180;58451;51.550;7.208;2023-07-08T01:21:30;101020.20;;;19.30
70831;BMP180;58451;51.550;7.208;2023-07-08T01:23:02;101016.40;;;19.30
70831;BMP180;58451;51.550;7.208;2023-07-08T01:24:37;101016.80;;;19.30
70831;BMP180;58451;51.550;7.208;2023-07-08T01:26:09;101016.20;;;19.30
70831;BMP180;58451;51.550;7.208;2023-07-08T01:27:48;101017.40;;;19.30
70831;BMP180;58451;51.550;7.208;2023-07-08T01:29:20;101010.40;;;19.30
70831;BMP180;58451;51.550;7.208;2023-07-08T01:30:52;101007.80;;;19.30
70831;BMP180;58451;51.550;7.208;2023-07-08T01:32:23;101009.00;;;19.30
70831;BMP180;58451;51.550;7.208;2023-07-08T01:33:55;101004.60;;;19.22
70831;BMP180;58451;51.550;7.208;2023-07-08T01:35:27;101006.60;;;19.20
70831;BMP180;58451;51.550;7.208;2023-07-08T01:37:01;101000.60;;;19.20
70831;BMP180;58451;51.550;7.208;2023-07-08T01:38:34;100999.40;;;19.20
70831;BMP180;58451;51.550;7.208;2023-07-08T01:40:35;101002.00;;;19.20
70831;BMP180;58451;51.550;7.208;2023-07-08T01:42:07;101001.80;;;19.20
70831;BMP180;58451;51.550;7.208;2023-07-08T01:43:38;100998.40;;;19.20
70831;BMP180;58451;51.550;7.208;2023-07-08T01:45:16;100997.80;;;19.12
70831;BMP180;58451;51.550;7.208;2023-07-08T01:46:47;100992.80;;;19.10
70831;BMP180;58451;51.550;7.208;2023-07-08T01:48:22;100994.60;;;19.10
70831;BMP180;58451;51.550;7.208;2023-07-08T01:49:54;100990.00;;;19.10
70831;BMP180;58451;51.550;7.208;2023-07-08T01:51:26;100988.80;;;19.10
70831;BMP180;58451;51.550;7.208;2023-07-08T01:53:00;100990.00;;;19.00
70831;BMP180;58451;51.550;7.208;2023-07-08T01:54:33;100990.60;;;19.00
70831;BMP180;58451;51.550;7.208;2023-07-08T01:56:05;100986.60;;;19.00
70831;BMP180;58451;51.550;7.208;2023-07-08T01:57:36;100982.60;;;19.00
70831;BMP180;58451;51.550;7.208;2023-07-08T01:59:07;100981.40;;;18.90
70831;BMP180;58451;51.550;7.208;2023-07-08T02:00:39;100976.80;;;18.90
70831;BMP180;58451;51.550;7.208;2023-07-08T02:02:10;100973.60;;;18.90
70831;BMP180;58451;51.550;7.208;2023-07-08T02:03:41;100975.40;;;18.90
70831;BMP180;58451;51.550;7.208;2023-07-08T02:05:16;100967.60;;;18.88
70831;BMP180;58451;51.550;7.208;2023-07-08T02:06:54;100974.20;;;18.80
70831;BMP180;58451;51.550;7.208;2023-07-08T02:08:26;100974.20;;;18.80
70831;BMP180;58451;51.550;7.208;2023-07-08T02:09:57;100972.20;;;18.80
70831;BMP180;58451;51.550;7.208;2023-07-08T02:11:28;100975.80;;;18.80
70831;BMP180;58451;51.550;7.208;2023-07-08T02:12:59;100969.40;;;18.80
70831;BMP180;58451;51.550;7.208;2023-07-08T02:14:30;100972.00;;;18.76
70831;BMP180;58451;51.550;7.208;2023-07-08T02:16:01;100976.20;;;18.70
70831;BMP180;58451;51.550;7.208;2023-07-08T02:17:33;100973.20;;;18.70
70831;BMP180;58451;51.550;7.208;2023-07-08T02:19:04;100973.00;;;18.70
70831;BMP180;58451;51.550;7.208;2023-07-08T02:20:35;100972.00;;;18.64
70831;BMP180;58451;51.550;7.208;2023-07-08T02:22:06;100978.20;;;18.60
70831;BMP180;58451;51.550;7.208;2023-07-08T02:23:37;100971.80;;;18.60
70831;BMP180;58451;51.550;7.208;2023-07-08T02:25:09;100970.40;;;18.60
70831;BMP180;58451;51.550;7.208;2023-07-08T02:26:40;100970.20;;;18.50
70831;BMP180;58451;51.550;7.208;2023-07-08T02:28:11;100968.80;;;18.50
70831;BMP180;58451;51.550;7.208;2023-07-08T02:29:42;100969.00;;;18.50
70831;BMP180;58451;51.550;7.208;2023-07-08T02:31:13;100966.80;;;18.48
70831;BMP180;58451;51.550;7.208;2023-07-08T02:32:45;100965.40;;;18.40
70831;BMP180;58451;51.550;7.208;2023-07-08T02:34:19;100961.40;;;18.40
70831;BMP180;58451;51.550;7.208;2023-07-08T02:35:50;100963.80;;;18.36
70831;BMP180;58451;51.550;7.208;2023-07-08T02:37:22;100960.40;;;18.30
70831;BMP180;58451;51.550;7.208;2023-07-08T02:38:53;100961.80;;;18.30
70831;BMP180;58451;51.550;7.208;2023-07-08T02:40:25;100963.80;;;18.20
70831;BMP180;58451;51.550;7.208;2023-07-08T02:41:57;100965.60;;;18.20
70831;BMP180;58451;51.550;7.208;2023-07-08T02:43:29;100967.40;;;18.20
70831;BMP180;58451;51.550;7.208;2023-07-08T02:45:00;100967.00;;;18.10
70831;BMP180;58451;51.550;7.208;2023-07-08T02:46:31;100967.60;;;18.10
70831;BMP180;58451;51.550;7.208;2023-07-08T02:48:04;100968.60;;;18.10
70831;BMP180;58451;51.550;7.208;2023-07-08T02:49:36;100963.60;;;18.08
70831;BMP180;58451;51.550;7.208;2023-07-08T02:51:07;100957.80;;;18.00
70831;BMP180;58451;51.550;7.208;2023-07-08T02:52:40;100964.80;;;18.00
70831;BMP180;58451;51.550;7.208;2023-07-08T02:54:11;100965.00;;;17.98
70831;BMP180;58451;51.550;7.208;2023-07-08T02:55:42;100969.80;;;17.90
70831;BMP180;58451;51.550;7.208;2023-07-08T02:57:13;100966.80;;;17.90
70831;BMP180;58451;51.550;7.208;2023-07-08T02:58:44;100966.20;;;17.90
70831;BMP180;58451;51.550;7.208;2023-07-08T03:00:15;100965.00;;;17.82
70831;BMP180;58451;51.550;7.208;2023-07-08T03:01:47;100962.80;;;17.80
70831;BMP180;58451;51.550;7.208;2023-07-08T03:03:18;100961.00;;;17.80
70831;BMP180;58451;51.550;7.208;2023-07-08T03:04:50;100959.20;;;17.80
70831;BMP180;58451;51.550;7.208;2023-07-08T03:06:21;100959.20;;;17.72
70831;BMP180;58451;51.550;7.208;2023-07-08T03:07:52;100958.00;;;17.70
70831;BMP180;58451;51.550;7.208;2023-07-08T03:09:23;100959.00;;;17.70
70831;BMP180;58451;51.550;7.208;2023-07-08T03:11:04;100959.20;;;17.70
70831;BMP180;58451;51.550;7.208;2023-07-08T03:12:36;100956.00;;;17.64
70831;BMP180;58451;51.550;7.208;2023-07-08T03:14:07;100959.40;;;17.60
70831;BMP180;58451;51.550;7.208;2023-07-08T03:15:38;100957.40;;;17.60
70831;BMP180;58451;51.550;7.208;2023-07-08T03:17:10;100959.60;;;17.60
70831;BMP180;58451;51.550;7.208;2023-07-08T03:18:41;100959.80;;;17.60
70831;BMP180;58451;51.550;7.208;2023-07-08T03:20:19;100959.20;;;17.58
70831;BMP180;58451;51.550;7.208;2023-07-08T03:21:50;100959.20;;;17.54
70831;BMP180;58451;51.550;7.208;2023-07-08T03:23:25;100956.20;;;17.50
70831;BMP180;58451;51.550;7.208;2023-07-08T03:24:56;100959.00;;;17.50
70831;BMP180;58451;51.550;7.208;2023-07-08T03:26:27;100962.00;;;17.50
70831;BMP180;58451;51.550;7.208;2023-07-08T03:28:04;100957.80;;;17.50
70831;BMP180;58451;51.550;7.208;2023-07-08T03:29:39;100956.00;;;17.50
70831;BMP180;58451;51.550;7.208;2023-07-08T03:31:10;100951.20;;;17.50
70831;BMP180;58451;51.550;7.208;2023-07-08T03:32:42;100954.40;;;17.50
70831;BMP180;58451;51.550;7.208;2023-07-08T03:34:16;100955.60;;;17.50
70831;BMP180;58451;51.550;7.208;2023-07-08T03:35:47;100954.40;;;17.50
70831;BMP180;58451;51.550;7.208;2023-07-08T03:37:20;100952.80;;;17.50
70831;BMP180;58451;51.550;7.208;2023-07-08T03:38:57;100959.00;;;17.50
70831;BMP180;58451;51.550;7.208;2023-07-08T03:40:29;100954.80;;;17.50
70831;BMP180;58451;51.550;7.208;2023-07-08T03:42:00;100955.20;;;17.50
70831;BMP180;58451;51.550;7.208;2023-07-08T03:43:32;100953.60;;;17.50
70831;BMP180;58451;51.550;7.208;2023-07-08T03:45:03;100953.80;;;17.50
70831;BMP180;58451;51.550;7.208;2023-07-08T03:46:35;100949.00;;;17.50
70831;BMP180;58451;51.550;7.208;2023-07-08T03:48:10;100951.80;;;17.50
70831;BMP180;58451;51.550;7.208;2023-07-08T03:49:42;100953.20;;;17.50
70831;BMP180;58451;51.550;7.208;2023-07-08T03:51:39;100954.80;;;17.50
70831;BMP180;58451;51.550;7.208;2023-07-08T03:53:10;100955.60;;;17.50
70831;BMP180;58451;51.550;7.208;2023-07-08T03:54:41;100955.60;;;17.50
70831;BMP180;58451;51.550;7.208;2023-07-08T03:56:13;100964.20;;;17.50
70831;BMP180;58451;51.550;7.208;2023-07-08T03:57:45;100968.60;;;17.50
70831;BMP180;58451;51.550;7.208;2023-07-08T03:59:17;100965.80;;;17.50
70831;BMP180;58451;51.550;7.208;2023-07-08T04:00:49;100968.00;;;17.56
70831;BMP180;58451;51.550;7.208;2023-07-08T04:02:21;100963.40;;;17.58
70831;BMP180;58451;51.550;7.208;2023-07-08T04:03:55;100962.60;;;17.60
70831;BMP180;58451;51.550;7.208;2023-07-08T04:05:27;100963.60;;;17.60
70831;BMP180;58451;51.550;7.208;2023-07-08T04:06:58;100962.40;;;17.60
70831;BMP180;58451;51.550;7.208;2023-07-08T04:08:29;100961.80;;;17.60
70831;BMP180;58451;51.550;7.208;2023-07-08T04:10:00;100964.80;;;17.60
70831;BMP180;58451;51.550;7.208;2023-07-08T04:11:31;100962.60;;;17.70
70831;BMP180;58451;51.550;7.208;2023-07-08T04:13:03;100963.00;;;17.70
70831;BMP180;58451;51.550;7.208;2023-07-08T04:14:34;100963.20;;;17.70
70831;BMP180;58451;51.550;7.208;2023-07-08T04:16:06;100965.60;;;17.70
70831;BMP180;58451;51.550;7.208;2023-07-08T04:17:47;100966.00;;;17.70
70831;BMP180;58451;51.550;7.208;2023-07-08T04:19:19;100968.40;;;17.70
70831;BMP180;58451;51.550;7.208;2023-07-08T04:20:50;100969.60;;;17.70
70831;BMP180;58451;51.550;7.208;2023-07-08T04:22:25;100972.40;;;17.70
70831;BMP180;58451;51.550;7.208;2023-07-08T04:23:57;100974.00;;;17.76
70831;BMP180;58451;51.550;7.208;2023-07-08T04:25:28;100973.60;;;17.80
70831;BMP180;58451;51.550;7.208;2023-07-08T04:27:00;100968.20;;;17.80
70831;BMP180;58451;51.550;7.208;2023-07-08T04:28:31;100971.00;;;17.80
70831;BMP180;58451;51.550;7.208;2023-07-08T04:30:02;100978.20;;;17.80
70831;BMP180;58451;51.550;7.208;2023-07-08T04:31:35;100980.80;;;17.84
70831;BMP180;58451;51.550;7.208;2023-07-08T04:33:13;100981.20;;;17.90
70831;BMP180;58451;51.550;7.208;2023-07-08T04:34:44;100975.00;;;17.90
70831;BMP180;58451;51.550;7.208;2023-07-08T04:36:16;100977.20;;;17.92
70831;BMP180;58451;51.550;7.208;2023-07-08T04:37:47;100977.20;;;18.00
70831;BMP180;58451;51.550;7.208;2023-07-08T04:39:19;100978.80;;;18.00
70831;BMP180;58451;51.550;7.208;2023-07-08T04:40:52;100978.00;;;18.00
70831;BMP180;58451;51.550;7.208;2023-07-08T04:42:24;100975.60;;;18.10
70831;BMP180;58451;51.550;7.208;2023-07-08T04:43:55;100978.20;;;18.14
70831;BMP180;58451;51.550;7.208;2023-07-08T04:45:28;100976.00;;;18.20
70831;BMP180;58451;51.550;7.208;2023-07-08T04:47:00;100975.20;;;18.30
70831;BMP180;58451;51.550;7.208;2023-07-08T04:48:31;100977.60;;;18.40
70831;BMP180;58451;51.550;7.208;2023-07-08T04:50:04;100981.20;;;18.48
70831;BMP180;58451;51.550;7.208;2023-07-08T04:51:37;100979.00;;;18.50
70831;BMP180;58451;51.550;7.208;2023-07-08T04:53:08;100982.20;;;18.60
70831;BMP180;58451;51.550;7.208;2023-07-08T04:54:40;100978.20;;;18.72
70831;BMP180;58451;51.550;7.208;2023-07-08T04:56:11;100980.60;;;18.82
70831;BMP180;58451;51.550;7.208;2023-07-08T04:57:42;100979.60;;;18.90
70831;BMP180;58451;51.550;7.208;2023-07-08T04:59:16;100981.00;;;19.00
70831;BMP180;58451;51.550;7.208;2023-07-08T05:00:48;100987.20;;;19.10
70831;BMP180;58451;51.550;7.208;2023-07-08T05:02:19;100982.00;;;19.20
70831;BMP180;58451;51.550;7.208;2023-07-08T05:03:51;100982.40;;;19.30
70831;BMP180;58451;51.550;7.208;2023-07-08T05:05:22;100984.00;;;19.34
70831;BMP180;58451;51.550;7.208;2023-07-08T05:06:53;100983.00;;;19.48
70831;BMP180;58451;51.550;7.208;2023-07-08T05:08:24;100980.00;;;19.58
70831;BMP180;58451;51.550;7.208;2023-07-08T05:09:55;100980.60;;;19.66
70831;BMP180;58451;51.550;7.208;2023-07-08T05:11:27;100980.60;;;19.70
70831;BMP180;58451;51.550;7.208;2023-07-08T05:12:59;100981.00;;;19.70
70831;BMP180;58451;51.550;7.208;2023-07-08T05:14:30;100982.60;;;19.80
70831;BMP180;58451;51.550;7.208;2023-07-08T05:16:01;100984.40;;;19.80
70831;BMP180;58451;51.550;7.208;2023-07-08T05:17:34;100981.80;;;19.80
70831;BMP180;58451;51.550;7.208;2023-07-08T05:19:05;100978.20;;;19.86
70831;BMP180;58451;51.550;7.208;2023-07-08T05:20:36;100983.60;;;19.90
70831;BMP180;58451;51.550;7.208;2023-07-08T05:22:08;100984.40;;;19.90
70831;BMP180;58451;51.550;7.208;2023-07-08T05:23:39;100983.60;;;19.90
70831;BMP180;58451;51.550;7.208;2023-07-08T05:25:12;100984.20;;;19.90
70831;BMP180;58451;51.550;7.208;2023-07-08T05:26:43;100980.20;;;19.98
70831;BMP180;58451;51.550;7.208;2023-07-08T05:28:14;100975.40;;;19.90
70831;BMP180;58451;51.550;7.208;2023-07-08T05:29:46;100978.00;;;19.90
70831;BMP180;58451;51.550;7.208;2023-07-08T05:31:18;100979.60;;;19.98
70831;BMP180;58451;51.550;7.208;2023-07-08T05:32:49;100976.20;;;20.00
70831;BMP180;58451;51.550;7.208;2023-07-08T05:34:21;100980.80;;;20.00
70831;BMP180;58451;51.550;7.208;2023-07-08T05:35:53;100983.40;;;19.92
70831;BMP180;58451;51.550;7.208;2023-07-08T05:37:24;100984.40;;;19.92
70831;BMP180;58451;51.550;7.208;2023-07-08T05:38:56;100985.80;;;19.98
70831;BMP180;58451;51.550;7.208;2023-07-08T05:40:27;100977.60;;;20.00
70831;BMP180;58451;51.550;7.208;2023-07-08T05:41:59;100972.40;;;20.10
70831;BMP180;58451;51.550;7.208;2023-07-08T05:43:30;100974.40;;;20.10
70831;BMP180;58451;51.550;7.208;2023-07-08T05:45:02;100971.40;;;20.10
70831;BMP180;58451;51.550;7.208;2023-07-08T05:46:33;100977.80;;;20.20
70831;BMP180;58451;51.550;7.208;2023-07-08T05:48:05;100980.80;;;20.20
70831;BMP180;58451;51.550;7.208;2023-07-08T05:49:36;100976.40;;;20.28
70831;BMP180;58451;51.550;7.208;2023-07-08T05:51:07;100975.80;;;20.30
70831;BMP180;58451;51.550;7.208;2023-07-08T05:52:38;100974.80;;;20.30
70831;BMP180;58451;51.550;7.208;2023-07-08T05:54:10;100969.40;;;20.40
70831;BMP180;58451;51.550;7.208;2023-07-08T05:55:41;100967.60;;;20.40
70831;BMP180;58451;51.550;7.208;2023-07-08T05:57:13;100968.60;;;20.48
70831;BMP180;58451;51.550;7.208;2023-07-08T05:58:45;100967.00;;;20.50
70831;BMP180;58451;51.550;7.208;2023-07-08T06:00:16;100970.80;;;20.50
70831;BMP180;58451;51.550;7.208;2023-07-08T06:02:10;100969.60;;;20.60
70831;BMP180;58451;51.550;7.208;2023-07-08T06:03:42;100969.20;;;20.64
70831;BMP180;58451;51.550;7.208;2023-07-08T06:05:14;100973.00;;;20.70
70831;BMP180;58451;51.550;7.208;2023-07-08T06:06:45;100970.00;;;20.80
70831;BMP180;58451;51.550;7.208;2023-07-08T06:08:16;100974.20;;;20.82
70831;BMP180;58451;51.550;7.208;2023-07-08T06:09:48;100969.80;;;20.90
70831;BMP180;58451;51.550;7.208;2023-07-08T06:11:19;100968.00;;;20.96
70831;BMP180;58451;51.550;7.208;2023-07-08T06:12:50;100969.00;;;21.00
70831;BMP180;58451;51.550;7.208;2023-07-08T06:14:21;100972.40;;;21.10
70831;BMP180;58451;51.550;7.208;2023-07-08T06:15:53;100969.60;;;21.20
70831;BMP180;58451;51.550;7.208;2023-07-08T06:17:24;100970.60;;;21.20
70831;BMP180;58451;51.550;7.208;2023-07-08T06:18:57;100969.60;;;21.20
70831;BMP180;58451;51.550;7.208;2023-07-08T06:20:28;100973.20;;;21.22
70831;BMP180;58451;51.550;7.208;2023-07-08T06:22:00;100967.40;;;21.30
70831;BMP180;58451;51.550;7.208;2023-07-08T06:23:51;100968.60;;;21.20
70831;BMP180;58451;51.550;7.208;2023-07-08T06:25:22;100968.20;;;21.30
70831;BMP180;58451;51.550;7.208;2023-07-08T06:26:54;100969.80;;;21.30
70831;BMP180;58451;51.550;7.208;2023-07-08T06:28:28;100969.00;;;21.30
70831;BMP180;58451;51.550;7.208;2023-07-08T06:29:59;100972.00;;;21.40
70831;BMP180;58451;51.550;7.208;2023-07-08T06:31:30;100975.60;;;21.48
70831;BMP180;58451;51.550;7.208;2023-07-08T06:33:02;100973.40;;;21.50
70831;BMP180;58451;51.550;7.208;2023-07-08T06:34:33;100971.00;;;21.50
70831;BMP180;58451;51.550;7.208;2023-07-08T06:36:04;100970.80;;;21.60
70831;BMP180;58451;51.550;7.208;2023-07-08T06:37:37;100972.00;;;21.70
70831;BMP180;58451;51.550;7.208;2023-07-08T06:39:08;100976.80;;;21.70
70831;BMP180;58451;51.550;7.208;2023-07-08T06:40:42;100972.20;;;21.80
70831;BMP180;58451;51.550;7.208;2023-07-08T06:42:13;100969.20;;;21.80
70831;BMP180;58451;51.550;7.208;2023-07-08T06:43:50;100969.40;;;21.80
70831;BMP180;58451;51.550;7.208;2023-07-08T06:45:22;100967.00;;;21.90
70831;BMP180;58451;51.550;7.208;2023-07-08T06:46:53;100971.20;;;22.00
70831;BMP180;58451;51.550;7.208;2023-07-08T06:48:24;100968.40;;;22.00
70831;BMP180;58451;51.550;7.208;2023-07-08T06:49:56;100970.80;;;22.10
70831;BMP180;58451;51.550;7.208;2023-07-08T06:51:30;100970.20;;;22.10
70831;BMP180;58451;51.550;7.208;2023-07-08T06:53:01;100971.40;;;22.20
70831;BMP180;58451;51.550;7.208;2023-07-08T06:54:32;100972.00;;;22.20
70831;BMP180;58451;51.550;7.208;2023-07-08T06:56:03;100973.00;;;22.30
70831;BMP180;58451;51.550;7.208;2023-07-08T06:57:35;100975.80;;;22.40
70831;BMP180;58451;51.550;7.208;2023-07-08T06:59:08;100980.20;;;22.48
70831;BMP180;58451;51.550;7.208;2023-07-08T07:00:43;100975.40;;;22.50
70831;BMP180;58451;51.550;7.208;2023-07-08T07:02:15;100973.40;;;22.60
70831;BMP180;58451;51.550;7.208;2023-07-08T07:03:47;100974.40;;;22.60
70831;BMP180;58451;51.550;7.208;2023-07-08T07:05:19;100972.60;;;22.60
70831;BMP180;58451;51.550;7.208;2023-07-08T07:06:53;100973.00;;;22.70
70831;BMP180;58451;51.550;7.208;2023-07-08T07:08:25;100971.40;;;22.80
70831;BMP180;58451;51.550;7.208;2023-07-08T07:09:56;100971.40;;;22.88
70831;BMP180;58451;51.550;7.208;2023-07-08T07:11:27;100977.80;;;23.00
70831;BMP180;58451;51.550;7.208;2023-07-08T07:12:59;100974.60;;;23.08
70831;BMP180;58451;51.550;7.208;2023-07-08T07:14:30;100973.40;;;23.10
70831;BMP180;58451;51.550;7.208;2023-07-08T07:16:05;100971.20;;;23.10
70831;BMP180;58451;51.550;7.208;2023-07-08T07:17:36;100969.60;;;23.10
70831;BMP180;58451;51.550;7.208;2023-07-08T07:19:07;100972.00;;;23.20
70831;BMP180;58451;51.550;7.208;2023-07-08T07:20:48;100973.80;;;23.20
70831;BMP180;58451;51.550;7.208;2023-07-08T07:22:20;100971.20;;;23.20
70831;BMP180;58451;51.550;7.208;2023-07-08T07:23:51;100971.80;;;23.20
70831;BMP180;58451;51.550;7.208;2023-07-08T07:25:23;100970.20;;;23.20
70831;BMP180;58451;51.550;7.208;2023-07-08T07:26:54;100974.20;;;23.30
70831;BMP180;58451;51.550;7.208;2023-07-08T07:28:25;100970.80;;;23.30
70831;BMP180;58451;51.550;7.208;2023-07-08T07:29:56;100969.80;;;23.34
70831;BMP180;58451;51.550;7.208;2023-07-08T07:31:30;100970.20;;;23.40
70831;BMP180;58451;51.550;7.208;2023-07-08T07:33:03;100963.80;;;23.40
70831;BMP180;58451;51.550;7.208;2023-07-08T07:34:34;100967.80;;;23.50
70831;BMP180;58451;51.550;7.208;2023-07-08T07:36:05;100967.00;;;23.60
70831;BMP180;58451;51.550;7.208;2023-07-08T07:37:37;100963.20;;;23.70
70831;BMP180;58451;51.550;7.208;2023-07-08T07:39:08;100966.00;;;23.70
70831;BMP180;58451;51.550;7.208;2023-07-08T07:40:40;100969.60;;;23.80
70831;BMP180;58451;51.550;7.208;2023-07-08T07:42:15;100968.40;;;23.90
70831;BMP180;58451;51.550;7.208;2023-07-08T07:43:48;100966.80;;;23.90
70831;BMP180;58451;51.550;7.208;2023-07-08T07:45:19;100970.80;;;23.90
70831;BMP180;58451;51.550;7.208;2023-07-08T07:46:53;100970.40;;;24.00
70831;BMP180;58451;51.550;7.208;2023-07-08T07:48:25;100972.80;;;24.04
70831;BMP180;58451;51.550;7.208;2023-07-08T07:49:56;100970.60;;;24.10
70831;BMP180;58451;51.550;7.208;2023-07-08T07:51:27;100972.20;;;24.10
70831;BMP180;58451;51.550;7.208;2023-07-08T07:52:59;100978.80;;;24.10
70831;BMP180;58451;51.550;7.208;2023-07-08T07:54:30;100974.00;;;24.20
70831;BMP180;58451;51.550;7.208;2023-07-08T07:56:02;100978.00;;;24.20
70831;BMP180;58451;51.550;7.208;2023-07-08T07:57:35;100974.60;;;24.30
70831;BMP180;58451;51.550;7.208;2023-07-08T07:59:06;100971.40;;;24.38
70831;BMP180;58451;51.550;7.208;2023-07-08T08:00:39;100975.20;;;24.44
70831;BMP180;58451;51.550;7.208;2023-07-08T08:02:10;100975.80;;;24.50
70831;BMP180;58451;51.550;7.208;2023-07-08T08:03:43;100979.40;;;24.58
70831;BMP180;58451;51.550;7.208;2023-07-08T08:05:15;100981.80;;;24.60
70831;BMP180;58451;51.550;7.208;2023-07-08T08:06:46;100975.80;;;24.70
70831;BMP180;58451;51.550;7.208;2023-07-08T08:08:19;100978.20;;;24.80
70831;BMP180;58451;51.550;7.208;2023-07-08T08:09:50;100977.80;;;24.90
70831;BMP180;58451;51.550;7.208;2023-07-08T08:11:22;100976.40;;;25.00
70831;BMP180;58451;51.550;7.208;2023-07-08T08:12:53;100978.20;;;25.10
70831;BMP180;58451;51.550;7.208;2023-07-08T08:14:25;100976.40;;;25.20
70831;BMP180;58451;51.550;7.208;2023-07-08T08:15:57;100977.40;;;25.22
70831;BMP180;58451;51.550;7.208;2023-07-08T08:17:30;100981.80;;;25.36
70831;BMP180;58451;51.550;7.208;2023-07-08T08:19:01;100979.40;;;25.40
70831;BMP180;58451;51.550;7.208;2023-07-08T08:20:32;100978.20;;;25.58
70831;BMP180;58451;51.550;7.208;2023-07-08T08:22:04;100980.60;;;25.64
70831;BMP180;58451;51.550;7.208;2023-07-08T08:23:35;100980.80;;;25.70
70831;BMP180;58451;51.550;7.208;2023-07-08T08:25:06;100978.80;;;25.80
70831;BMP180;58451;51.550;7.208;2023-07-08T08:26:38;100983.20;;;25.84
70831;BMP180;58451;51.550;7.208;2023-07-08T08:28:10;100983.20;;;25.90
70831;BMP180;58451;51.550;7.208;2023-07-08T08:29:41;100984.00;;;26.00
70831;BMP180;58451;51.550;7.208;2023-07-08T08:31:16;100984.00;;;26.12
70831;BMP180;58451;51.550;7.208;2023-07-08T08:32:48;100982.80;;;26.22
70831;BMP180;58451;51.550;7.208;2023-07-08T08:34:20;100985.40;;;26.34
70831;BMP180;58451;51.550;7.208;2023-07-08T08:35:51;100986.80;;;26.44
70831;BMP180;58451;51.550;7.208;2023-07-08T08:37:23;100987.40;;;26.50
70831;BMP180;58451;51.550;7.208;2023-07-08T08:38:54;100986.40;;;26.60
70831;BMP180;58451;51.550;7.208;2023-07-08T08:40:25;100988.80;;;26.68
70831;BMP180;58451;51.550;7.208;2023-07-08T08:41:57;100984.80;;;26.70
70831;BMP180;58451;51.550;7.208;2023-07-08T08:43:36;100985.00;;;26.80
70831;BMP180;58451;51.550;7.208;2023-07-08T08:45:16;100986.80;;;26.90
70831;BMP180;58451;51.550;7.208;2023-07-08T08:48:56;100985.40;;;27.20
70831;BMP180;58451;51.550;7.208;2023-07-08T08:50:44;100989.20;;;27.30
70831;BMP180;58451;51.550;7.208;2023-07-08T08:52:18;100991.00;;;27.40